createdAt,value
2019-03-15T00:01:39.664Z,6.10
2019-03-15T00:04:07.897Z,6.20
2019-03-15T00:06:35.853Z,6.30
2019-03-15T00:09:06.290Z,6.30
2019-03-15T00:11:37.254Z,6.20
2019-03-15T00:14:08.300Z,6.10
2019-03-15T00:16:42.357Z,6.10
2019-03-15T00:19:10.238Z,6.10
2019-03-15T00:21:38.195Z,6.00
2019-03-15T00:24:06.323Z,6.00
2019-03-15T00:26:37.046Z,5.90
2019-03-15T00:29:07.789Z,5.90
2019-03-15T00:31:38.781Z,5.90
2019-03-15T00:34:06.690Z,5.90
2019-03-15T00:36:34.574Z,5.80
2019-03-15T00:39:05.741Z,5.80
2019-03-15T00:41:36.781Z,5.80
2019-03-15T00:44:04.736Z,5.80
2019-03-15T00:46:35.757Z,5.70
2019-03-15T00:49:09.766Z,5.70
2019-03-15T00:51:37.666Z,5.70
2019-03-15T00:54:08.436Z,5.70
2019-03-15T00:56:36.424Z,5.60
2019-03-15T00:59:07.395Z,5.60
2019-03-15T01:01:35.321Z,5.60
2019-03-15T01:04:03.285Z,5.50
2019-03-15T01:06:31.185Z,5.50
2019-03-15T01:08:59.102Z,5.40
2019-03-15T01:11:26.995Z,5.30
2019-03-15T01:13:54.886Z,5.30
2019-03-15T01:16:25.935Z,5.20
2019-03-15T01:18:54.166Z,5.20
2019-03-15T01:21:22.063Z,5.30
2019-03-15T01:23:53.020Z,5.30
2019-03-15T01:26:20.953Z,5.40
2019-03-15T01:28:48.920Z,5.50
2019-03-15T01:31:16.816Z,5.50
2019-03-15T01:33:47.743Z,5.50
2019-03-15T01:36:15.618Z,5.60
2019-03-15T01:38:52.072Z,5.60
2019-03-15T01:41:20.223Z,5.70
2019-03-15T01:43:48.453Z,5.60
2019-03-15T01:46:16.389Z,5.70
2019-03-15T01:48:44.284Z,5.80
2019-03-15T01:51:12.172Z,5.80
2019-03-15T01:53:40.063Z,5.80
2019-03-15T01:56:10.955Z,5.80
2019-03-15T01:58:41.618Z,5.80
2019-03-15T02:01:10.772Z,5.80
2019-03-15T02:03:39.576Z,5.80
2019-03-15T02:06:10.367Z,5.80
2019-03-15T02:08:38.254Z,5.70
2019-03-15T02:11:06.217Z,5.70
2019-03-15T02:13:34.109Z,5.70
2019-03-15T02:16:02.122Z,5.70
2019-03-15T02:18:30.072Z,5.70
2019-03-15T02:21:01.093Z,5.60
2019-03-15T02:23:29.056Z,5.70
2019-03-15T02:26:03.069Z,5.80
2019-03-15T02:28:30.967Z,5.70
2019-03-15T02:30:58.934Z,5.70
2019-03-15T02:33:26.845Z,5.70
2019-03-15T02:35:54.731Z,5.60
2019-03-15T02:38:27.071Z,5.70
2019-03-15T02:40:58.275Z,5.80
2019-03-15T02:43:26.399Z,5.60
2019-03-15T02:45:54.369Z,5.60
2019-03-15T02:48:22.277Z,5.60
2019-03-15T02:50:50.161Z,5.50
2019-03-15T02:53:18.298Z,5.50
2019-03-15T02:55:46.186Z,5.40
2019-03-15T02:58:19.953Z,5.50
2019-03-15T03:00:51.144Z,5.50
2019-03-15T03:03:20.715Z,5.50
2019-03-15T03:05:48.712Z,5.50
2019-03-15T03:08:16.681Z,5.70
2019-03-15T03:10:44.603Z,5.70
2019-03-15T03:13:12.580Z,5.70
2019-03-15T03:15:40.534Z,5.70
2019-03-15T03:18:08.434Z,5.60
2019-03-15T03:20:36.405Z,5.60
2019-03-15T03:23:04.278Z,5.60
2019-03-15T03:25:32.182Z,5.70
2019-03-15T03:28:01.281Z,5.70
2019-03-15T03:30:29.414Z,5.70
2019-03-15T03:32:57.312Z,5.60
2019-03-15T03:35:28.316Z,5.60
2019-03-15T03:37:56.200Z,5.70
2019-03-15T03:40:27.035Z,5.70
2019-03-15T03:42:54.987Z,5.70
2019-03-15T03:45:23.482Z,5.70
2019-03-15T03:47:54.478Z,5.70
2019-03-15T03:50:22.364Z,5.70
2019-03-15T03:52:50.283Z,5.70
2019-03-15T03:55:18.249Z,5.60
2019-03-15T03:57:49.471Z,5.60
2019-03-15T04:00:17.429Z,5.70
2019-03-15T04:02:47.314Z,5.70
2019-03-15T04:05:15.280Z,5.60
2019-03-15T04:07:43.169Z,5.60
2019-03-15T04:10:11.273Z,5.50
2019-03-15T04:12:39.226Z,5.60
2019-03-15T04:15:07.299Z,5.60
2019-03-15T04:17:35.434Z,5.60
2019-03-15T04:20:03.750Z,5.60
2019-03-15T04:22:31.714Z,5.50
2019-03-15T04:24:59.672Z,5.60
2019-03-15T04:27:27.586Z,5.60
2019-03-15T04:29:55.736Z,5.60
2019-03-15T04:32:26.485Z,5.60
2019-03-15T04:34:54.659Z,5.60
2019-03-15T04:37:23.018Z,5.70
2019-03-15T04:39:51.430Z,5.70
2019-03-15T04:42:19.395Z,5.60
2019-03-15T04:44:50.140Z,5.70
2019-03-15T04:47:18.097Z,5.70
2019-03-15T04:49:45.998Z,5.80
2019-03-15T04:52:14.012Z,5.80
2019-03-15T04:54:41.935Z,5.70
2019-03-15T04:57:13.174Z,5.70
2019-03-15T04:59:41.107Z,5.60
2019-03-15T05:02:08.963Z,5.70
2019-03-15T05:04:36.869Z,5.60
2019-03-15T05:07:04.867Z,5.60
2019-03-15T05:09:32.770Z,5.70
2019-03-15T05:12:03.448Z,5.70
2019-03-15T05:14:31.366Z,5.70
2019-03-15T05:16:59.381Z,5.70
2019-03-15T05:19:30.141Z,5.70
2019-03-15T05:21:58.307Z,5.80
2019-03-15T05:24:26.333Z,5.90
2019-03-15T05:26:54.247Z,5.90
2019-03-15T05:29:22.234Z,5.90
2019-03-15T05:31:50.247Z,5.80
2019-03-15T05:34:18.184Z,5.80
2019-03-15T05:36:49.329Z,5.90
2019-03-15T05:39:17.356Z,5.80
2019-03-15T05:41:48.643Z,5.70
2019-03-15T05:44:16.673Z,5.90
2019-03-15T05:46:47.504Z,5.90
2019-03-15T05:49:15.436Z,5.80
2019-03-15T05:51:43.324Z,5.80
2019-03-15T05:54:11.227Z,5.70
2019-03-15T05:56:39.399Z,5.80
2019-03-15T05:59:07.367Z,5.80
2019-03-15T06:01:35.570Z,5.80
2019-03-15T06:04:03.542Z,5.80
2019-03-15T06:06:43.624Z,5.90
2019-03-15T06:09:11.857Z,5.90
2019-03-15T06:11:39.749Z,5.80
2019-03-15T06:14:11.033Z,5.80
2019-03-15T06:16:39.205Z,5.70
2019-03-15T06:19:09.705Z,5.80
2019-03-15T06:21:37.617Z,5.80
2019-03-15T06:24:08.584Z,5.90
2019-03-15T06:26:36.481Z,5.90
2019-03-15T06:29:04.398Z,5.90
2019-03-15T06:31:32.602Z,6.00
2019-03-15T06:34:00.906Z,6.00
2019-03-15T06:36:31.596Z,6.00
2019-03-15T06:38:59.769Z,5.90
2019-03-15T06:41:28.213Z,5.90
2019-03-15T06:43:56.157Z,5.90
2019-03-15T06:46:24.036Z,5.90
2019-03-15T06:48:55.162Z,5.90
2019-03-15T06:51:28.918Z,6.00
2019-03-15T06:53:56.800Z,5.90
2019-03-15T06:56:24.772Z,5.90
2019-03-15T06:58:52.756Z,6.00
2019-03-15T07:01:20.641Z,6.10
2019-03-15T07:03:51.620Z,6.10
2019-03-15T07:06:19.544Z,6.10
2019-03-15T07:08:47.962Z,6.00
2019-03-15T07:11:19.003Z,6.10
2019-03-15T07:13:46.905Z,6.10
2019-03-15T07:16:14.805Z,6.10
2019-03-15T07:18:42.922Z,6.20
2019-03-15T07:21:10.833Z,6.10
2019-03-15T07:23:38.725Z,6.20
2019-03-15T07:26:06.664Z,6.10
2019-03-15T07:28:34.557Z,6.20
2019-03-15T07:31:02.436Z,6.20
2019-03-15T07:33:30.968Z,6.20
2019-03-15T07:35:59.572Z,6.20
2019-03-15T07:38:30.782Z,6.30
2019-03-15T07:40:58.682Z,6.30
2019-03-15T07:43:26.582Z,6.30
2019-03-15T07:45:54.548Z,6.30
2019-03-15T07:48:26.721Z,6.40
2019-03-15T07:50:52.137Z,6.40
2019-03-15T07:53:20.115Z,6.50
2019-03-15T07:55:48.009Z,6.40
2019-03-15T07:58:15.902Z,6.50
2019-03-15T09:51:15.492Z,7.40
2019-03-15T09:54:17.140Z,7.60
2019-03-15T10:03:22.025Z,7.60
2019-03-15T10:17:57.532Z,7.80
2019-03-15T10:35:57.255Z,8.20
2019-03-15T10:38:48.422Z,8.30
2019-03-15T10:41:34.468Z,8.30
2019-03-15T10:58:41.407Z,8.80
2019-03-15T11:01:31.861Z,9.00
2019-03-15T11:04:00.064Z,9.10
2019-03-15T11:06:31.738Z,9.20
2019-03-15T11:08:59.935Z,9.30
2019-03-15T11:11:31.251Z,9.30
2019-03-15T11:17:57.003Z,9.30
2019-03-15T11:20:25.521Z,9.50
2019-03-15T11:23:18.697Z,9.50
2019-03-15T11:25:46.684Z,9.60
2019-03-15T11:28:14.809Z,9.60
2019-03-15T11:30:42.727Z,9.80
2019-03-15T11:33:10.765Z,9.80
2019-03-15T11:35:38.790Z,9.80
2019-03-15T11:38:06.829Z,9.80
2019-03-15T11:40:40.882Z,9.80
2019-03-15T11:43:08.942Z,9.90
2019-03-15T11:45:40.726Z,10.00
2019-03-15T11:57:10.531Z,10.40
2019-03-15T12:03:07.586Z,10.60
2019-03-15T12:15:53.654Z,11.10
2019-03-15T12:18:57.226Z,11.20
2019-03-15T12:22:06.401Z,11.30
2019-03-15T12:24:46.825Z,11.40
2019-03-15T13:00:11.302Z,12.10
2019-03-15T13:15:48.346Z,12.50
2019-03-15T13:19:29.320Z,12.60
2019-03-15T13:47:56.009Z,12.10
2019-03-15T14:14:55.958Z,12.60
2019-03-15T14:17:59.626Z,12.60
2019-03-15T15:53:01.209Z,12.50
2019-03-15T15:55:29.131Z,12.50
2019-03-15T15:57:57.025Z,12.50
2019-03-15T16:00:25.014Z,12.40
2019-03-15T16:02:53.157Z,12.40
2019-03-15T16:05:21.089Z,12.40
2019-03-15T16:07:50.359Z,12.30
2019-03-15T16:10:21.231Z,12.30
2019-03-15T16:12:49.270Z,12.30
2019-03-15T16:15:17.528Z,12.30
2019-03-15T16:17:48.295Z,12.30
2019-03-15T16:20:16.743Z,12.30
2019-03-15T16:22:44.875Z,12.30
2019-03-15T16:25:18.617Z,12.30
2019-03-15T16:27:46.781Z,12.30
2019-03-15T16:30:14.753Z,12.20
2019-03-15T16:32:42.708Z,12.30
2019-03-15T16:35:10.831Z,12.30
2019-03-15T16:37:38.814Z,12.20
2019-03-15T16:40:09.806Z,12.20
2019-03-15T16:42:40.657Z,12.10
2019-03-15T16:45:09.884Z,12.10
2019-03-15T16:47:49.992Z,12.10
2019-03-15T16:50:17.886Z,12.00
2019-03-15T16:52:45.887Z,11.90
2019-03-15T16:55:13.808Z,11.90
2019-03-15T16:57:41.785Z,11.80
2019-03-15T17:00:09.907Z,11.70
2019-03-15T17:02:40.647Z,11.80
2019-03-15T17:05:08.929Z,11.70
2019-03-15T17:07:36.932Z,11.70
2019-03-15T17:10:05.025Z,11.60
2019-03-15T17:12:42.711Z,11.60
2019-03-15T17:15:11.028Z,11.60
2019-03-15T17:17:38.925Z,11.60
2019-03-15T17:20:07.141Z,11.50
2019-03-15T17:22:37.834Z,11.40
2019-03-15T17:25:06.130Z,11.40
2019-03-15T17:27:35.369Z,11.30
2019-03-15T17:30:03.860Z,11.30
2019-03-15T17:32:31.720Z,11.20
2019-03-15T17:34:59.725Z,11.20
2019-03-15T17:37:27.857Z,11.20
2019-03-15T17:39:56.015Z,11.20
2019-03-15T17:42:25.104Z,11.20
2019-03-15T17:44:52.973Z,11.20
2019-03-15T17:47:20.881Z,11.20
2019-03-15T17:49:48.761Z,11.20
2019-03-15T17:52:16.764Z,11.20
2019-03-15T17:54:44.649Z,11.40
2019-03-15T17:57:12.840Z,11.50
2019-03-15T17:59:40.804Z,11.50
2019-03-15T18:02:09.005Z,11.40
2019-03-15T18:04:36.921Z,11.40
2019-03-15T18:07:04.907Z,11.40
2019-03-15T18:09:32.862Z,11.40
2019-03-15T18:12:00.781Z,11.40
2019-03-15T18:14:28.669Z,11.40
2019-03-15T18:16:56.638Z,11.40
2019-03-15T18:19:24.653Z,11.30
2019-03-15T18:21:52.898Z,11.20
2019-03-15T18:24:21.126Z,11.20
2019-03-15T18:26:49.281Z,11.20
2019-03-15T18:29:26.647Z,11.20
2019-03-15T18:31:53.021Z,11.10
2019-03-15T18:34:24.275Z,11.10
2019-03-15T18:36:52.473Z,11.10
2019-03-15T18:39:20.435Z,11.10
2019-03-15T18:41:50.611Z,11.10
2019-03-15T18:44:21.096Z,11.10
2019-03-15T18:46:49.013Z,11.10
2019-03-15T18:49:18.661Z,11.00
2019-03-15T18:51:47.063Z,11.10
2019-03-15T18:54:17.627Z,11.00
2019-03-15T18:56:44.673Z,11.10
2019-03-15T18:59:12.801Z,11.00
2019-03-15T19:01:41.171Z,11.00
2019-03-15T19:04:09.095Z,10.90
2019-03-15T19:06:37.125Z,11.00
2019-03-15T19:09:06.120Z,11.00
2019-03-15T19:11:34.085Z,11.00
2019-03-15T19:14:01.999Z,11.00
2019-03-15T19:16:33.130Z,11.00
2019-03-15T19:19:01.068Z,10.90
2019-03-15T19:21:30.247Z,11.00
2019-03-15T19:23:58.241Z,10.90
2019-03-15T19:26:28.824Z,10.90
2019-03-15T19:28:55.840Z,11.00
2019-03-15T19:31:23.757Z,10.90
2019-03-15T19:33:51.685Z,10.90
2019-03-15T19:36:19.622Z,11.00
2019-03-15T19:38:47.661Z,11.00
2019-03-15T19:41:18.759Z,11.00
2019-03-15T19:43:49.215Z,11.00
2019-03-15T19:46:17.549Z,11.00
2019-03-15T19:48:45.453Z,11.00
2019-03-15T19:51:13.340Z,10.90
2019-03-15T19:53:44.108Z,11.00
2019-03-15T19:56:12.215Z,11.00
2019-03-15T19:58:40.089Z,11.10
2019-03-15T20:01:08.526Z,11.20
2019-03-15T20:03:44.031Z,11.20
2019-03-15T20:06:08.040Z,11.10
2019-03-15T20:08:42.171Z,11.10
2019-03-15T20:11:10.188Z,11.10
2019-03-15T20:13:38.130Z,11.10
2019-03-15T20:16:06.130Z,11.10
2019-03-15T20:18:34.572Z,11.10
2019-03-15T20:21:02.566Z,11.10
2019-03-15T20:23:33.959Z,11.10
2019-03-15T20:26:02.258Z,11.20
2019-03-15T20:28:31.893Z,11.20
2019-03-15T20:31:00.762Z,11.10
2019-03-15T20:33:29.924Z,11.10
2019-03-15T20:35:57.943Z,11.10
2019-03-15T20:38:25.877Z,11.20
2019-03-15T20:40:53.765Z,11.10
2019-03-15T20:43:22.653Z,11.10
2019-03-15T20:45:51.612Z,11.00
2019-03-15T20:48:21.371Z,11.10
2019-03-15T20:50:50.926Z,11.00
2019-03-15T20:53:21.594Z,11.20
2019-03-15T20:55:52.182Z,11.10
2019-03-15T20:58:22.482Z,11.10
2019-03-15T21:00:51.536Z,11.20
2019-03-15T21:03:20.213Z,11.20
2019-03-15T21:05:48.106Z,11.10
2019-03-15T21:08:16.093Z,11.10
2019-03-15T21:10:44.006Z,11.20
2019-03-15T21:13:12.913Z,11.10
2019-03-15T21:15:42.274Z,11.20
2019-03-15T21:18:11.075Z,11.20
2019-03-15T21:20:39.045Z,11.20
2019-03-15T21:23:06.969Z,11.20
2019-03-15T21:25:34.858Z,11.30
2019-03-15T21:28:05.842Z,11.30
2019-03-15T21:30:34.098Z,11.30
2019-03-15T21:33:03.129Z,11.30
2019-03-15T21:35:32.058Z,11.30
2019-03-15T21:38:00.407Z,11.30
2019-03-15T21:40:28.383Z,11.30
2019-03-15T21:43:01.061Z,11.30
2019-03-15T21:45:29.467Z,11.30
2019-03-15T21:47:57.590Z,11.20
2019-03-15T21:50:25.508Z,11.30
2019-03-15T21:52:53.386Z,11.30
2019-03-15T21:55:28.062Z,11.30
2019-03-15T21:57:55.965Z,11.30
2019-03-15T22:00:24.259Z,11.30
2019-03-15T22:02:52.618Z,11.20
2019-03-15T22:05:22.735Z,11.10
2019-03-15T22:07:56.636Z,11.00
2019-03-15T22:10:24.547Z,11.00
2019-03-15T22:12:52.510Z,10.90
2019-03-15T22:15:20.464Z,10.90
2019-03-15T22:17:48.486Z,10.70
2019-03-15T22:20:16.583Z,10.40
2019-03-15T22:22:50.384Z,10.30
2019-03-15T22:25:18.390Z,10.20
2019-03-15T22:27:49.830Z,10.20
2019-03-15T22:30:16.136Z,10.00
2019-03-15T22:32:44.122Z,9.90
2019-03-15T22:35:12.073Z,9.80
2019-03-15T22:37:42.741Z,9.80
2019-03-15T22:40:10.729Z,9.70
2019-03-15T22:42:38.726Z,9.70
2019-03-15T22:45:06.714Z,9.70
2019-03-15T22:47:34.594Z,9.60
2019-03-15T22:50:05.829Z,9.60
2019-03-15T22:52:33.737Z,9.50
2019-03-15T22:55:01.929Z,9.50
2019-03-15T22:57:29.811Z,9.50
2019-03-15T22:59:57.932Z,9.50
2019-03-15T23:02:25.900Z,9.50
2019-03-15T23:04:53.868Z,9.50
2019-03-15T23:07:26.090Z,9.40
2019-03-15T23:09:54.047Z,9.40
2019-03-15T23:12:21.932Z,9.40
2019-03-15T23:14:56.053Z,9.40
2019-03-15T23:17:27.210Z,9.40
2019-03-15T23:19:55.329Z,9.40
2019-03-15T23:22:25.984Z,9.50
2019-03-15T23:25:03.328Z,9.50
2019-03-15T23:27:31.277Z,9.50
2019-03-15T23:29:59.172Z,9.70
2019-03-15T23:32:32.968Z,9.90
2019-03-15T23:35:00.854Z,10.00
2019-03-15T23:37:28.967Z,10.10
2019-03-15T23:39:56.869Z,10.20
2019-03-15T23:42:26.730Z,10.20
2019-03-15T23:44:54.678Z,10.20
2019-03-15T23:47:28.629Z,10.20
2019-03-15T23:49:56.596Z,10.30
2019-03-15T23:52:24.729Z,10.40
2019-03-15T23:54:52.885Z,10.30
2019-03-15T23:57:21.026Z,10.40
2019-03-15T23:59:52.163Z,10.40
